Fort Polk, Louisiana
Current Conditions -  °F | °C
As of 2:48 AM on Sunday 23 Nov 2014 (Local Time) from KPOE Reporting Station
Moderate Rain Moderate Rain  
Wind Chill: 63°   Ceiling: 400
Heat Index: 63°   Visibility: 2mi
Dew Point: 63°   Wind: 6mph
Humidity: 100%   Direction: 130°SE
Pressure: 29.71"   Gusts: NA
Location:  30.9864°N, 93.2144°W
Report Text: KPOE 230848Z AUTO 13005KT 2SM RA BR BKN004 OVC055 17/17 A2971 RMK AO2 BKN V OVC
Loading
Personal Weather Stations






























Interactive Weather Map New forecast layout! Learn more

10-Day Weather Forecast

Advertisements
Track Severe Weather on mobile